Time;durP1;ratioP1;P1;durP2;ratioP2;P2;SDS_P1;SDS_P2;PMS_P1;PMS_P2;Temp;Humidity;BMP_temperature;BMP_pressure;BME280_temperature;BME280_humidity;BME280_pressure;Samples;Min_cycle;Max_cycle;Signal;HPM_P1;HPM_P2
2022/10/15 00:02:10;;;;;;;12.57;10.43;;;18.40;50.70;;;;;;5092446;28;20179;-43
2022/10/15 00:04:36;;;;;;;10.00;8.00;;;18.50;50.80;;;;;;5092529;28;20172;-41
2022/10/15 00:07:02;;;;;;;11.33;9.20;;;18.50;50.60;;;;;;5091982;28;20405;-43
2022/10/15 00:09:28;;;;;;;10.80;8.10;;;18.50;50.70;;;;;;5092265;28;20199;-41
2022/10/15 00:11:54;;;;;;;10.43;9.20;;;18.50;50.70;;;;;;5092440;28;20426;-42
2022/10/15 00:14:19;;;;;;;13.00;9.23;;;18.50;50.70;;;;;;5092280;28;20167;-42
2022/10/15 00:16:45;;;;;;;10.90;9.20;;;18.50;50.70;;;;;;5091811;28;20176;-43
2022/10/15 00:19:11;;;;;;;12.13;9.73;;;18.50;50.70;;;;;;5092252;28;20164;-43
2022/10/15 00:21:37;;;;;;;9.95;8.95;;;18.50;50.70;;;;;;5092080;28;20662;-42
2022/10/15 00:24:03;;;;;;;12.97;8.93;;;18.50;50.60;;;;;;5092129;28;20195;-41
2022/10/15 00:26:30;;;;;;;17.15;10.63;;;18.50;50.70;;;;;;5091562;28;20413;-41
2022/10/15 00:28:59;;;;;;;12.30;10.25;;;18.50;50.70;;;;;;5092151;28;20578;-40
2022/10/15 00:31:26;;;;;;;12.00;9.20;;;18.50;50.90;;;;;;5091987;28;20199;-40
2022/10/15 00:33:54;;;;;;;12.55;9.07;;;18.50;51.00;;;;;;5092084;28;20643;-42
2022/10/15 00:36:30;;;;;;;12.43;9.95;;;18.50;51.00;;;;;;5091513;28;20639;-41
2022/10/15 00:38:56;;;;;;;12.73;9.88;;;18.50;51.00;;;;;;5092246;28;20218;-41
2022/10/15 00:41:24;;;;;;;15.10;10.03;;;18.50;51.00;;;;;;5092262;28;20690;-41
2022/10/15 00:43:56;;;;;;;12.32;10.75;;;18.50;51.10;;;;;;5092055;28;20456;-41
2022/10/15 00:46:40;;;;;;;12.10;9.40;;;18.50;51.00;;;;;;5091457;28;20175;-42
2022/10/15 00:49:11;;;;;;;11.38;9.15;;;18.50;50.90;;;;;;5091988;28;20171;-41
2022/10/15 00:51:43;;;;;;;10.85;9.57;;;18.40;51.00;;;;;;5091729;28;20298;-42
2022/10/15 00:54:10;;;;;;;12.57;9.80;;;18.40;51.00;;;;;;5091988;28;20163;-41
2022/10/15 00:56:38;;;;;;;14.77;11.10;;;18.40;51.20;;;;;;5091310;28;20168;-42
2022/10/15 00:59:06;;;;;;;21.02;9.80;;;18.40;51.10;;;;;;5094189;28;20172;-43
2022/10/15 01:01:32;;;;;;;12.52;11.32;;;18.40;51.00;;;;;;5095619;28;20249;-41
2022/10/15 01:04:00;;;;;;;13.73;11.40;;;18.40;51.10;;;;;;5095776;28;20632;-43
2022/10/15 01:06:26;;;;;;;14.68;11.02;;;18.30;51.10;;;;;;5095177;28;20531;-42
2022/10/15 01:08:52;;;;;;;11.68;9.30;;;18.30;51.20;;;;;;5095654;28;20176;-43
2022/10/15 01:11:38;;;;;;;12.40;10.40;;;18.30;51.20;;;;;;5095508;28;20218;-41
2022/10/15 01:14:13;;;;;;;13.00;11.50;;;18.30;51.20;;;;;;5095621;28;20398;-41
2022/10/15 01:17:20;;;;;;;14.70;12.23;;;18.30;51.20;;;;;;5095035;28;20159;-42
2022/10/15 01:20:04;;;;;;;14.13;11.63;;;18.30;51.20;;;;;;5072570;28;20176;-42
2022/10/15 01:22:52;;;;;;;13.30;10.65;;;18.30;51.20;;;;;;5095456;28;20163;-43
2022/10/15 01:25:45;;;;;;;18.98;11.95;;;18.30;51.20;;;;;;5095347;28;20225;-41
2022/10/15 01:28:45;;;;;;;14.50;9.88;;;18.30;51.30;;;;;;5095663;28;20180;-42
2022/10/15 01:31:26;;;;;;;13.95;11.48;;;18.30;51.30;;;;;;5095779;28;20220;-41
2022/10/15 01:34:03;;;;;;;13.48;10.95;;;18.20;51.30;;;;;;5095193;28;20647;-41
2022/10/15 01:36:36;;;;;;;13.23;11.82;;;18.30;51.40;;;;;;5094615;28;20179;-43
2022/10/15 01:39:23;;;;;;;15.95;13.80;;;18.30;51.40;;;;;;5095178;28;20179;-41
2022/10/15 01:41:59;;;;;;;13.93;10.70;;;18.30;51.30;;;;;;5095084;28;20202;-41
2022/10/15 01:44:35;;;;;;;11.38;10.15;;;18.30;51.40;;;;;;5095373;28;20156;-41
2022/10/15 01:47:04;;;;;;;13.43;11.75;;;18.20;51.30;;;;;;5094677;28;20160;-42
2022/10/15 01:49:34;;;;;;;14.32;11.98;;;18.20;51.40;;;;;;5094926;28;20635;-40
2022/10/15 01:52:05;;;;;;;15.73;11.57;;;18.20;51.40;;;;;;5095069;28;20196;-40
2022/10/15 01:54:31;;;;;;;13.57;11.25;;;18.20;51.30;;;;;;5094939;28;20573;-43
2022/10/15 01:56:58;;;;;;;14.63;12.88;;;18.20;51.40;;;;;;5094134;28;20540;-41
2022/10/15 01:59:30;;;;;;;14.77;12.25;;;18.20;51.50;;;;;;5094807;28;20252;-42
2022/10/15 02:01:57;;;;;;;14.32;11.00;;;18.20;51.40;;;;;;5094483;28;20306;-40
2022/10/15 02:04:25;;;;;;;14.27;11.23;;;18.20;51.50;;;;;;5094876;28;20211;-41
2022/10/15 02:07:25;;;;;;;13.65;11.95;;;18.20;51.60;;;;;;5094219;28;20187;-42
2022/10/15 02:10:07;;;;;;;13.10;11.63;;;18.20;51.40;;;;;;5093935;28;20207;-41
2022/10/15 02:12:39;;;;;;;13.70;12.30;;;18.20;51.50;;;;;;5094746;28;20230;-40
2022/10/15 02:15:21;;;;;;;13.38;11.82;;;18.20;51.60;;;;;;5094736;28;20199;-41
2022/10/15 02:18:13;;;;;;;15.45;12.65;;;18.20;51.60;;;;;;5093891;28;20169;-43
2022/10/15 02:20:56;;;;;;;13.32;11.38;;;18.20;51.60;;;;;;5094321;28;20271;-42
2022/10/15 02:23:52;;;;;;;16.27;13.05;;;18.10;51.70;;;;;;5094487;28;20171;-43
2022/10/15 02:26:19;;;;;;;17.42;12.27;;;18.10;51.70;;;;;;5086646;28;20659;-43
2022/10/15 02:28:51;;;;;;;14.07;12.30;;;18.10;52.00;;;;;;5094090;28;20180;-42
2022/10/15 02:31:19;;;;;;;14.18;11.75;;;18.10;51.80;;;;;;5094082;28;20203;-40
2022/10/15 02:33:47;;;;;;;13.25;10.77;;;18.10;51.90;;;;;;5094256;28;20179;-42
2022/10/15 02:36:13;;;;;;;12.95;11.27;;;18.10;51.70;;;;;;5093744;28;20172;-41
2022/10/15 02:38:43;;;;;;;16.02;12.65;;;18.10;51.70;;;;;;5094020;28;20172;-40
2022/10/15 02:41:10;;;;;;;16.08;11.95;;;18.10;51.70;;;;;;5093935;28;20278;-42
2022/10/15 02:43:37;;;;;;;12.88;10.93;;;18.10;51.70;;;;;;5093936;28;20259;-43
2022/10/15 02:46:04;;;;;;;13.95;10.80;;;18.10;51.70;;;;;;5093300;28;20172;-42
2022/10/15 02:48:29;;;;;;;17.65;12.88;;;18.20;51.60;;;;;;5093885;28;20218;-42
2022/10/15 02:50:55;;;;;;;14.27;12.83;;;18.20;51.60;;;;;;5093702;28;20230;-42
2022/10/15 02:53:21;;;;;;;16.47;12.23;;;18.20;51.60;;;;;;5093737;28;20163;-42
2022/10/15 02:55:47;;;;;;;14.80;12.07;;;18.20;51.50;;;;;;5092980;28;20677;-42
2022/10/15 02:58:12;;;;;;;15.70;12.63;;;18.20;51.50;;;;;;5093908;28;20245;-43
2022/10/15 03:00:38;;;;;;;16.00;14.23;;;18.20;51.40;;;;;;5093388;28;20210;-44
2022/10/15 03:03:04;;;;;;;14.53;12.70;;;18.20;51.60;;;;;;5093560;28;20539;-42
2022/10/15 03:05:30;;;;;;;14.60;11.70;;;18.20;51.50;;;;;;5093249;28;20172;-44
2022/10/15 03:07:57;;;;;;;16.97;13.50;;;18.20;51.50;;;;;;5093109;28;20172;-41
2022/10/15 03:10:25;;;;;;;15.68;13.18;;;18.20;51.60;;;;;;5093136;28;20690;-42
2022/10/15 03:12:50;;;;;;;13.68;12.20;;;18.10;51.60;;;;;;5093548;28;20206;-43
2022/10/15 03:15:16;;;;;;;18.30;15.20;;;18.10;51.60;;;;;;5093245;28;20239;-41
2022/10/15 03:17:42;;;;;;;18.20;14.20;;;18.10;51.70;;;;;;5092721;28;20168;-42
2022/10/15 03:20:08;;;;;;;16.17;12.57;;;18.10;51.70;;;;;;5093107;28;20195;-42
2022/10/15 03:22:33;;;;;;;15.40;13.23;;;18.10;51.70;;;;;;5092573;28;20639;-41
2022/10/15 03:24:59;;;;;;;13.27;11.87;;;18.10;51.70;;;;;;5093033;28;20812;-42
2022/10/15 03:27:25;;;;;;;17.00;13.50;;;18.10;51.70;;;;;;5092807;28;20179;-42
2022/10/15 03:29:51;;;;;;;14.80;12.77;;;18.10;51.70;;;;;;5093187;28;20192;-42
2022/10/15 03:32:16;;;;;;;14.63;11.53;;;18.20;51.60;;;;;;5093310;28;20170;-43
2022/10/15 03:34:42;;;;;;;14.73;12.63;;;18.10;51.60;;;;;;5093035;28;20643;-41
2022/10/15 03:37:08;;;;;;;17.23;12.80;;;18.10;51.70;;;;;;5092207;28;20528;-41
2022/10/15 03:39:33;;;;;;;14.90;12.40;;;18.20;51.70;;;;;;5092874;28;20202;-43
2022/10/15 03:41:59;;;;;;;14.80;13.27;;;18.20;51.60;;;;;;5093007;28;20219;-43
2022/10/15 03:44:25;;;;;;;17.27;13.13;;;18.20;51.60;;;;;;5092749;28;20172;-41
2022/10/15 03:46:50;;;;;;;17.60;13.53;;;18.20;51.60;;;;;;5092094;28;20167;-42
2022/10/15 03:49:16;;;;;;;16.80;13.13;;;18.20;51.50;;;;;;5092932;28;20176;-41
2022/10/15 03:51:42;;;;;;;14.17;12.70;;;18.10;51.70;;;;;;5092400;28;20203;-41
2022/10/15 03:54:08;;;;;;;16.63;13.93;;;18.10;51.70;;;;;;5092545;28;20421;-43
2022/10/15 03:56:34;;;;;;;16.03;12.03;;;18.10;51.70;;;;;;5091966;28;20176;-43
2022/10/15 03:58:59;;;;;;;15.63;13.70;;;18.20;51.70;;;;;;5092805;28;20398;-43
2022/10/15 04:01:25;;;;;;;15.27;13.20;;;18.20;51.50;;;;;;5092416;28;20203;-41
2022/10/15 04:03:52;;;;;;;15.43;13.63;;;18.20;51.50;;;;;;5092456;28;20578;-41
2022/10/15 04:06:18;;;;;;;17.00;12.95;;;18.20;51.50;;;;;;5091802;28;20172;-43
2022/10/15 04:08:44;;;;;;;14.02;12.55;;;18.20;51.50;;;;;;5092289;28;20271;-43
2022/10/15 04:11:09;;;;;;;13.50;12.10;;;18.20;51.50;;;;;;5092442;28;20294;-41
2022/10/15 04:13:35;;;;;;;21.30;14.57;;;18.20;51.70;;;;;;5092423;28;20170;-42
2022/10/15 04:16:04;;;;;;;15.90;12.90;;;18.20;51.50;;;;;;5091790;28;20175;-41
2022/10/15 04:18:30;;;;;;;15.88;12.88;;;18.20;51.60;;;;;;5092402;28;20232;-41
2022/10/15 04:20:59;;;;;;;14.35;12.60;;;18.20;51.60;;;;;;5092229;28;20196;-40
2022/10/15 04:23:25;;;;;;;14.52;13.02;;;18.20;51.50;;;;;;5092173;28;20179;-41
2022/10/15 04:25:51;;;;;;;15.53;12.63;;;18.20;51.40;;;;;;5091848;28;20176;-43
2022/10/15 04:28:16;;;;;;;13.30;11.93;;;18.20;51.40;;;;;;5092198;28;20171;-43
2022/10/15 04:30:42;;;;;;;15.40;11.87;;;18.10;51.50;;;;;;5091961;28;20211;-42
2022/10/15 04:33:08;;;;;;;15.90;13.87;;;18.10;51.50;;;;;;5096489;28;20171;-42
2022/10/15 04:35:34;;;;;;;17.27;13.57;;;18.10;51.50;;;;;;5098233;28;20176;-43
2022/10/15 04:38:00;;;;;;;19.20;13.90;;;18.10;51.70;;;;;;5098693;28;20175;-43
2022/10/15 04:40:26;;;;;;;17.08;13.25;;;18.10;51.70;;;;;;5099012;28;20215;-41
2022/10/15 04:42:52;;;;;;;16.17;12.07;;;18.10;51.70;;;;;;5099033;28;20214;-41
2022/10/15 04:45:18;;;;;;;17.67;14.27;;;18.10;51.70;;;;;;5098814;28;20500;-42
2022/10/15 04:47:44;;;;;;;14.68;12.40;;;18.10;51.60;;;;;;5098194;28;20666;-41
2022/10/15 04:50:10;;;;;;;14.98;12.05;;;18.10;51.70;;;;;;5098577;28;20605;-42
2022/10/15 04:52:36;;;;;;;13.53;12.03;;;18.10;51.70;;;;;;5098568;28;20174;-43
2022/10/15 04:55:03;;;;;;;14.87;12.20;;;18.10;51.70;;;;;;5098891;28;20786;-42
2022/10/15 04:57:30;;;;;;;16.15;13.07;;;18.10;51.70;;;;;;5098470;28;20263;-43
2022/10/15 04:59:56;;;;;;;13.63;12.05;;;18.10;51.70;;;;;;5098678;28;20191;-41
2022/10/15 05:02:22;;;;;;;16.07;11.70;;;18.10;51.70;;;;;;5098705;28;20156;-42
2022/10/15 05:04:48;;;;;;;15.82;12.70;;;18.10;51.80;;;;;;5098547;28;20397;-43
2022/10/15 05:07:14;;;;;;;15.75;13.00;;;18.10;51.70;;;;;;5097915;28;20186;-43
2022/10/15 05:09:40;;;;;;;13.23;11.90;;;18.00;51.90;;;;;;5098370;28;20172;-42
2022/10/15 05:12:06;;;;;;;14.07;12.57;;;18.00;52.00;;;;;;5098514;28;20460;-42
2022/10/15 05:14:31;;;;;;;16.37;12.73;;;18.00;52.10;;;;;;5098600;28;20404;-43
2022/10/15 05:16:57;;;;;;;15.50;13.13;;;18.00;52.30;;;;;;5097931;28;20241;-41
2022/10/15 05:19:23;;;;;;;15.77;13.03;;;18.00;52.30;;;;;;5098483;28;20272;-42
2022/10/15 05:21:48;;;;;;;14.93;13.03;;;18.00;52.40;;;;;;5098290;28;20191;-41
2022/10/15 05:24:14;;;;;;;16.50;13.03;;;18.00;52.40;;;;;;5098440;28;20175;-41
2022/10/15 05:26:40;;;;;;;14.90;12.53;;;18.00;52.40;;;;;;5097852;28;20550;-42
2022/10/15 05:29:05;;;;;;;19.83;14.23;;;18.00;52.40;;;;;;5098493;28;20172;-43
2022/10/15 05:31:32;;;;;;;15.10;13.03;;;18.00;52.40;;;;;;5098196;28;20302;-42
2022/10/15 05:33:58;;;;;;;14.70;12.07;;;18.00;52.30;;;;;;5098335;28;20168;-43
2022/10/15 05:36:26;;;;;;;14.83;12.90;;;18.00;52.20;;;;;;5097862;28;20505;-44
2022/10/15 05:38:57;;;;;;;14.40;11.95;;;18.10;52.30;;;;;;5098269;28;20234;-43
2022/10/15 05:41:27;;;;;;;13.77;11.68;;;18.10;52.30;;;;;;5098354;28;20199;-42
2022/10/15 05:43:55;;;;;;;13.63;12.23;;;18.10;52.20;;;;;;5096480;28;20215;-43
2022/10/15 05:46:21;;;;;;;16.25;14.43;;;18.10;52.20;;;;;;5094715;28;20243;-41
2022/10/15 05:48:51;;;;;;;14.77;12.85;;;18.10;52.20;;;;;;5094836;28;20168;-43
2022/10/15 05:51:17;;;;;;;13.60;11.30;;;18.10;52.10;;;;;;5094766;28;20291;-43
2022/10/15 05:53:45;;;;;;;14.40;12.67;;;18.10;52.10;;;;;;5094844;28;20604;-42
2022/10/15 05:56:11;;;;;;;16.85;12.98;;;18.10;52.10;;;;;;5094556;28;20410;-43
2022/10/15 05:58:37;;;;;;;13.48;11.02;;;18.10;52.30;;;;;;5094811;28;20168;-41
2022/10/15 06:01:05;;;;;;;11.90;10.60;;;18.10;52.30;;;;;;5094549;28;20204;-41
2022/10/15 06:03:31;;;;;;;13.23;11.88;;;18.10;52.30;;;;;;5094653;28;20414;-42
2022/10/15 06:05:57;;;;;;;15.00;11.80;;;18.10;52.20;;;;;;5094224;28;20172;-41
2022/10/15 06:08:23;;;;;;;13.87;12.37;;;18.10;52.20;;;;;;5094651;28;20225;-42
2022/10/15 06:10:49;;;;;;;11.97;10.27;;;18.10;52.10;;;;;;5094712;28;20204;-43
2022/10/15 06:13:15;;;;;;;11.93;10.70;;;18.10;52.10;;;;;;5094581;28;20394;-42
2022/10/15 06:15:43;;;;;;;13.93;12.10;;;18.10;52.00;;;;;;5093960;28;20301;-43
2022/10/15 06:18:11;;;;;;;15.90;11.02;;;18.20;52.10;;;;;;5094688;28;20171;-42
2022/10/15 06:20:37;;;;;;;12.95;11.75;;;18.20;52.10;;;;;;5094243;28;20249;-42
2022/10/15 06:23:04;;;;;;;14.05;11.55;;;18.20;52.10;;;;;;5094375;28;20167;-41
2022/10/15 06:25:30;;;;;;;12.40;11.10;;;18.20;52.10;;;;;;5094031;28;20179;-43
2022/10/15 06:28:01;;;;;;;13.20;11.93;;;18.20;52.10;;;;;;5094012;28;20509;-42
2022/10/15 06:30:27;;;;;;;11.13;10.02;;;18.30;52.10;;;;;;5093939;28;20204;-41
2022/10/15 06:32:53;;;;;;;11.93;10.57;;;18.30;52.00;;;;;;5094364;28;20251;-42
2022/10/15 06:35:20;;;;;;;13.23;11.67;;;18.30;52.10;;;;;;5094081;28;20636;-43
2022/10/15 06:37:46;;;;;;;15.57;10.82;;;18.30;52.10;;;;;;5093488;28;20992;-43
2022/10/15 06:40:12;;;;;;;11.48;9.93;;;18.30;52.10;;;;;;5093961;28;20283;-43
2022/10/15 06:42:39;;;;;;;12.75;11.07;;;18.40;52.10;;;;;;5094062;28;20199;-42
2022/10/15 06:45:06;;;;;;;10.43;9.38;;;18.30;52.10;;;;;;5093804;28;20172;-42
2022/10/15 06:47:32;;;;;;;12.05;10.85;;;18.30;52.10;;;;;;5093459;28;20229;-43
2022/10/15 06:49:59;;;;;;;12.98;11.68;;;18.30;52.10;;;;;;5093918;28;20224;-43
2022/10/15 06:52:25;;;;;;;9.77;8.52;;;18.30;52.20;;;;;;5093760;28;20731;-42
2022/10/15 06:54:51;;;;;;;13.40;12.00;;;18.40;52.20;;;;;;5093579;28;20254;-43
2022/10/15 06:57:16;;;;;;;11.47;10.37;;;18.40;52.20;;;;;;5092091;28;20168;-42
2022/10/15 06:59:42;;;;;;;12.43;9.87;;;18.40;52.10;;;;;;5093278;28;20409;-42
2022/10/15 07:02:09;;;;;;;10.80;9.40;;;18.50;52.10;;;;;;5093519;28;20168;-44
2022/10/15 07:04:35;;;;;;;11.60;10.05;;;18.50;52.10;;;;;;5093445;28;20270;-43
2022/10/15 07:07:01;;;;;;;11.43;9.10;;;18.50;52.10;;;;;;5092969;28;20258;-42
2022/10/15 07:09:26;;;;;;;11.70;10.50;;;18.50;52.10;;;;;;5093166;28;20164;-43
2022/10/15 07:11:52;;;;;;;11.90;9.77;;;18.60;52.10;;;;;;5093176;28;20214;-44
2022/10/15 07:14:18;;;;;;;10.25;9.32;;;18.60;52.00;;;;;;5093271;28;20164;-43
2022/10/15 07:16:44;;;;;;;10.07;9.07;;;18.70;51.90;;;;;;5092937;28;20176;-41
2022/10/15 07:19:09;;;;;;;9.67;8.63;;;18.70;51.90;;;;;;5093216;28;20172;-42
2022/10/15 07:21:35;;;;;;;10.50;8.70;;;18.70;51.90;;;;;;5093166;28;20198;-42
2022/10/15 07:24:01;;;;;;;9.97;8.57;;;18.70;51.80;;;;;;5093219;28;20178;-43
2022/10/15 07:26:29;;;;;;;9.67;8.80;;;18.80;51.60;;;;;;5092499;28;20172;-42
2022/10/15 07:28:54;;;;;;;9.02;8.13;;;18.80;51.70;;;;;;5092942;28;20659;-44
2022/10/15 07:31:20;;;;;;;8.73;7.83;;;18.90;51.70;;;;;;5092748;28;20222;-42
2022/10/15 07:33:46;;;;;;;9.43;7.50;;;18.90;51.60;;;;;;5092886;28;20172;-42
2022/10/15 07:36:12;;;;;;;8.50;7.10;;;18.90;51.50;;;;;;5092298;28;20168;-42
2022/10/15 07:38:41;;;;;;;8.23;7.33;;;19.00;51.50;;;;;;5092902;28;20176;-43
2022/10/15 07:41:08;;;;;;;8.52;6.95;;;19.10;51.50;;;;;;5092817;28;20198;-41
2022/10/15 07:43:35;;;;;;;7.68;6.97;;;19.10;51.50;;;;;;5092845;28;20408;-43
2022/10/15 07:46:02;;;;;;;7.80;7.00;;;19.20;51.40;;;;;;5092152;28;20164;-42
2022/10/15 07:48:29;;;;;;;8.23;6.03;;;19.30;51.50;;;;;;5092952;28;20176;-42
2022/10/15 07:50:59;;;;;;;8.00;6.50;;;19.30;51.40;;;;;;5092445;28;20199;-41
2022/10/15 07:53:25;;;;;;;11.73;9.65;;;19.40;50.90;;;;;;5092725;28;20670;-41
2022/10/15 07:55:51;;;;;;;7.47;6.25;;;19.50;50.90;;;;;;5092060;28;20168;-40
2022/10/15 07:58:17;;;;;;;8.23;5.37;;;19.50;50.90;;;;;;5092537;28;20179;-42
2022/10/15 08:00:43;;;;;;;7.00;6.28;;;19.50;50.60;;;;;;5092251;28;20809;-42
2022/10/15 08:03:09;;;;;;;6.17;4.93;;;19.60;50.80;;;;;;5092334;28;20180;-42
2022/10/15 08:05:34;;;;;;;5.27;4.70;;;19.60;50.70;;;;;;5092100;28;20410;-41
2022/10/15 08:08:00;;;;;;;4.93;4.27;;;19.70;50.80;;;;;;5092021;28;20175;-42
2022/10/15 08:10:26;;;;;;;5.40;4.90;;;19.70;50.40;;;;;;5092117;28;20192;-42
2022/10/15 08:12:52;;;;;;;5.72;5.22;;;19.80;50.40;;;;;;5092322;28;20211;-42
2022/10/15 08:15:18;;;;;;;5.07;4.47;;;19.80;50.10;;;;;;5092550;28;20667;-42
2022/10/15 08:17:44;;;;;;;5.78;4.95;;;19.90;50.30;;;;;;5091850;28;20684;-42
2022/10/15 08:20:11;;;;;;;5.87;4.77;;;19.90;49.90;;;;;;5092249;28;20191;-42
2022/10/15 08:22:37;;;;;;;4.93;4.40;;;19.90;49.90;;;;;;5092094;28;20179;-43
2022/10/15 08:25:03;;;;;;;4.57;4.17;;;19.90;50.20;;;;;;5092146;28;20224;-42
2022/10/15 08:27:28;;;;;;;5.60;4.10;;;19.90;50.20;;;;;;5091570;28;20514;-42
2022/10/15 08:29:54;;;;;;;5.77;4.93;;;19.90;50.10;;;;;;5091896;28;20420;-43
2022/10/15 08:32:20;;;;;;;4.23;3.83;;;19.90;49.90;;;;;;5092140;28;20194;-44
2022/10/15 08:34:46;;;;;;;5.17;4.47;;;20.00;49.90;;;;;;5092140;28;20603;-43
2022/10/15 08:37:12;;;;;;;4.77;4.17;;;20.00;49.90;;;;;;5091580;28;20654;-42
2022/10/15 08:39:37;;;;;;;5.47;4.40;;;20.00;50.10;;;;;;5091957;28;20171;-43
2022/10/15 08:42:17;;;;;;;4.97;4.47;;;20.00;50.40;;;;;;5091959;28;20228;-42
2022/10/15 08:44:55;;;;;;;7.55;4.32;;;20.10;50.50;;;;;;5092236;28;20309;-42
2022/10/15 08:47:37;;;;;;;3.10;2.80;;;20.20;49.90;;;;;;5073588;28;20194;-42
2022/10/15 08:50:36;;;;;;;5.10;4.60;;;20.20;49.50;;;;;;5091765;28;20187;-43
2022/10/15 08:53:02;;;;;;;4.32;3.85;;;20.20;49.60;;;;;;5091964;28;20176;-42
2022/10/15 08:55:34;;;;;;;6.10;4.67;;;20.10;50.00;;;;;;5092293;28;20186;-43
2022/10/15 08:58:22;;;;;;;5.45;3.80;;;20.20;50.00;;;;;;5091905;28;20454;-42
2022/10/15 09:00:57;;;;;;;4.60;3.67;;;20.20;49.90;;;;;;5091659;28;20287;-42
2022/10/15 09:03:43;;;;;;;6.57;4.75;;;20.10;49.90;;;;;;5092002;28;20171;-42
2022/10/15 09:06:19;;;;;;;4.07;3.67;;;20.10;50.00;;;;;;5091252;28;20198;-42
2022/10/15 09:09:05;;;;;;;3.58;3.28;;;20.10;50.30;;;;;;5091683;28;20166;-42
2022/10/15 09:11:57;;;;;;;5.22;4.50;;;20.10;50.50;;;;;;5091669;28;20210;-42
2022/10/15 09:14:34;;;;;;;3.85;3.55;;;20.10;50.70;;;;;;5091283;28;20176;-41
2022/10/15 09:17:23;;;;;;;3.92;3.35;;;20.10;50.70;;;;;;5091116;28;20580;-42
2022/10/15 09:19:52;;;;;;;4.68;3.85;;;20.20;50.70;;;;;;5093495;28;20388;-42
2022/10/15 09:22:25;;;;;;;3.50;3.20;;;20.20;50.80;;;;;;5095396;28;20247;-42
2022/10/15 09:24:52;;;;;;;4.25;3.85;;;20.30;50.60;;;;;;5095368;28;20227;-42
2022/10/15 09:27:31;;;;;;;4.00;3.60;;;20.40;50.40;;;;;;5094790;28;20225;-42
2022/10/15 09:30:21;;;;;;;4.75;3.30;;;20.50;50.50;;;;;;5095060;28;20772;-42
2022/10/15 09:33:22;;;;;;;3.55;2.95;;;20.60;50.60;;;;;;5095412;28;20164;-42
2022/10/15 09:36:14;;;;;;;4.00;2.97;;;20.60;49.60;;;;;;5094062;28;20198;-42
2022/10/15 09:39:03;;;;;;;4.22;3.67;;;20.60;49.80;;;;;;5056920;28;20643;-41
2022/10/15 09:41:44;;;;;;;3.42;2.90;;;20.60;49.80;;;;;;5095272;28;20192;-42
2022/10/15 09:44:13;;;;;;;4.13;3.72;;;21.00;49.70;;;;;;5095140;28;20207;-42
2022/10/15 09:46:44;;;;;;;3.50;2.97;;;20.60;49.90;;;;;;5094491;28;20160;-42
2022/10/15 09:49:18;;;;;;;5.07;3.20;;;20.60;49.90;;;;;;5095208;28;20596;-42
2022/10/15 09:51:58;;;;;;;5.80;3.25;;;20.70;49.60;;;;;;5095033;28;20200;-42
2022/10/15 09:54:30;;;;;;;4.57;3.58;;;20.70;49.60;;;;;;5094899;28;20187;-42
2022/10/15 09:56:56;;;;;;;4.10;3.70;;;20.70;49.60;;;;;;5094424;28;20179;-42
2022/10/15 09:59:24;;;;;;;5.18;3.95;;;20.70;49.70;;;;;;5094822;28;20251;-41
2022/10/15 10:02:02;;;;;;;3.85;3.45;;;20.80;49.50;;;;;;5094714;28;20292;-42
2022/10/15 10:04:33;;;;;;;4.32;3.90;;;20.80;49.50;;;;;;5094725;28;20168;-42
2022/10/15 10:07:06;;;;;;;5.25;3.30;;;21.00;49.70;;;;;;5094008;28;20164;-42
2022/10/15 10:09:46;;;;;;;5.32;3.38;;;21.10;49.80;;;;;;5094662;28;20168;-42
2022/10/15 10:12:21;;;;;;;3.25;2.65;;;21.20;49.40;;;;;;5094612;28;20203;-42
2022/10/15 10:14:59;;;;;;;4.80;3.05;;;21.30;49.00;;;;;;5094572;28;20170;-42
2022/10/15 10:17:27;;;;;;;4.53;3.90;;;21.40;48.90;;;;;;5093973;28;20176;-43
2022/10/15 10:20:17;;;;;;;4.18;3.78;;;21.40;48.70;;;;;;5094397;28;20402;-43
2022/10/15 10:22:52;;;;;;;5.43;3.00;;;21.40;48.30;;;;;;5094608;28;20195;-41
2022/10/15 10:25:32;;;;;;;3.63;3.00;;;21.40;48.40;;;;;;5093271;28;20398;-42
2022/10/15 10:28:03;;;;;;;3.83;3.53;;;21.40;48.20;;;;;;5094254;28;20402;-42
2022/10/15 10:30:38;;;;;;;5.75;3.30;;;21.40;48.20;;;;;;5093967;28;20553;-42
2022/10/15 10:33:04;;;;;;;4.78;3.92;;;21.40;48.10;;;;;;5094236;28;20178;-40
2022/10/15 10:35:49;;;;;;;4.23;3.77;;;21.30;48.20;;;;;;5093893;28;20191;-42
2022/10/15 10:38:35;;;;;;;15.07;5.25;;;21.40;48.50;;;;;;5094149;28;20390;-42
2022/10/15 10:41:06;;;;;;;5.38;4.18;;;21.40;48.40;;;;;;5094067;28;20195;-42
2022/10/15 10:43:34;;;;;;;4.30;3.37;;;21.40;48.60;;;;;;5093893;28;20184;-42
2022/10/15 10:46:04;;;;;;;3.15;2.90;;;21.40;48.20;;;;;;5093258;28;20405;-42
2022/10/15 10:48:45;;;;;;;4.47;3.53;;;21.30;48.20;;;;;;5094105;28;20206;-40
2022/10/15 10:51:21;;;;;;;4.28;3.90;;;21.30;48.40;;;;;;5094479;28;20469;-42
2022/10/15 10:53:52;;;;;;;10.00;4.57;;;21.30;48.80;;;;;;5095118;28;20171;-41
2022/10/15 10:56:24;;;;;;;4.53;4.13;;;21.30;48.90;;;;;;5093599;28;20161;-42
2022/10/15 10:59:03;;;;;;;5.77;3.73;;;21.40;48.70;;;;;;5094109;28;20398;-43
2022/10/15 11:01:29;;;;;;;4.10;3.70;;;21.40;48.70;;;;;;5093744;28;20925;-42
2022/10/15 11:03:55;;;;;;;3.97;3.57;;;21.40;48.70;;;;;;5093814;28;20417;-42
2022/10/15 11:06:39;;;;;;;4.18;3.45;;;21.50;49.10;;;;;;5092871;28;20419;-43
2022/10/15 11:09:39;;;;;;;4.93;4.40;;;21.60;49.00;;;;;;5093748;28;20171;-43
2022/10/15 11:12:11;;;;;;;3.83;2.93;;;21.70;48.90;;;;;;5093216;28;20248;-43
2022/10/15 11:14:48;;;;;;;8.43;4.07;;;21.70;49.00;;;;;;5093544;28;20446;-40
2022/10/15 11:17:48;;;;;;;7.47;3.57;;;21.80;48.90;;;;;;5092727;28;20391;-42
2022/10/15 11:20:19;;;;;;;4.97;3.00;;;21.80;48.80;;;;;;5093246;28;20426;-41
2022/10/15 11:23:03;;;;;;;9.10;3.90;;;21.80;48.80;;;;;;5093324;28;20437;-42
2022/10/15 11:25:58;;;;;;;4.13;3.73;;;21.80;48.50;;;;;;5093073;28;20402;-42
2022/10/15 11:28:30;;;;;;;4.60;3.70;;;21.80;48.30;;;;;;5092874;28;20471;-40
2022/10/15 11:31:40;;;;;;;3.60;3.17;;;21.80;48.60;;;;;;5092957;28;20453;-42
2022/10/15 11:34:44;;;;;;;7.83;5.03;;;21.90;48.40;;;;;;5093049;28;20420;-42
2022/10/15 11:37:30;;;;;;;3.27;2.97;;;21.80;48.30;;;;;;5010189;28;20428;-43
2022/10/15 11:40:31;;;;;;;4.20;3.23;;;21.80;48.50;;;;;;5010706;28;20475;-43
2022/10/15 11:43:35;;;;;;;4.67;2.63;;;21.80;48.40;;;;;;5009869;28;20420;-43
2022/10/15 11:46:31;;;;;;;3.70;3.35;;;21.80;48.40;;;;;;5010138;28;20461;-42
2022/10/15 11:49:28;;;;;;;4.47;3.50;;;21.80;48.50;;;;;;5010493;28;20170;-43
2022/10/15 11:51:57;;;;;;;3.77;2.90;;;21.80;48.50;;;;;;5010474;28;20497;-42
2022/10/15 11:54:29;;;;;;;3.53;3.07;;;21.80;48.60;;;;;;5010420;28;20413;-43
2022/10/15 11:56:58;;;;;;;4.60;2.70;;;21.90;48.90;;;;;;5009732;28;20420;-43
2022/10/15 12:00:00;;;;;;;3.70;2.50;;;22.00;48.80;;;;;;5010347;28;20751;-42
2022/10/15 12:02:37;;;;;;;4.93;4.23;;;22.10;48.80;;;;;;5010253;28;20975;-41
2022/10/15 12:05:08;;;;;;;4.63;3.70;;;22.10;48.40;;;;;;5010282;28;21158;-43
2022/10/15 12:07:47;;;;;;;3.50;3.00;;;22.10;48.20;;;;;;5037855;28;20497;-42
2022/10/15 12:10:32;;;;;;;4.43;3.10;;;22.20;48.40;;;;;;5092658;28;20491;-42
2022/10/15 12:13:09;;;;;;;5.57;3.30;;;22.20;48.50;;;;;;5092409;28;20855;-42
2022/10/15 12:15:44;;;;;;;10.83;3.47;;;22.30;48.60;;;;;;5092017;28;20394;-42
2022/10/15 12:18:20;;;;;;;5.63;5.00;;;22.30;48.40;;;;;;5092763;28;20381;-43
2022/10/15 12:20:46;;;;;;;4.47;3.50;;;22.30;48.10;;;;;;5092289;28;20564;-42
2022/10/15 12:23:37;;;;;;;3.73;3.33;;;22.30;48.00;;;;;;5092193;28;20467;-42
2022/10/15 12:26:23;;;;;;;3.17;2.87;;;22.40;48.10;;;;;;5082275;28;20425;-42
2022/10/15 12:28:54;;;;;;;3.43;3.13;;;22.40;47.90;;;;;;5091844;28;20406;-43
2022/10/15 12:31:20;;;;;;;5.70;3.50;;;22.40;48.00;;;;;;5091888;28;20461;-43
2022/10/15 12:33:53;;;;;;;7.07;3.20;;;22.30;48.00;;;;;;5092098;28;20425;-43
2022/10/15 12:36:27;;;;;;;4.13;2.87;;;22.40;48.00;;;;;;5091545;28;20404;-41
2022/10/15 12:38:52;;;;;;;4.23;2.70;;;22.40;48.10;;;;;;5092013;28;20758;-42
2022/10/15 12:41:18;;;;;;;4.07;3.30;;;22.40;48.00;;;;;;5092054;28;20422;-42
2022/10/15 12:43:52;;;;;;;4.93;3.60;;;22.40;48.80;;;;;;5092319;28;20180;-43
2022/10/15 12:46:18;;;;;;;4.03;3.40;;;22.40;48.10;;;;;;5091422;28;20160;-43
2022/10/15 12:48:46;;;;;;;3.03;2.73;;;22.40;48.20;;;;;;5091931;28;20401;-43
2022/10/15 12:51:21;;;;;;;3.80;3.13;;;22.40;48.40;;;;;;5091843;28;20468;-42
2022/10/15 12:53:52;;;;;;;5.07;2.83;;;22.40;48.40;;;;;;5093670;28;20405;-42
2022/10/15 12:56:23;;;;;;;3.73;3.03;;;22.50;48.50;;;;;;5095438;28;20394;-43
2022/10/15 12:58:53;;;;;;;4.37;3.37;;;22.50;48.70;;;;;;5095975;28;20401;-42